Airfield :
LOGIN :

Register | Disclaimer

   EN    FR    IT 

 










Legend :    VFR   Marginal VFR   IFR   Intensive IFR   Very Intensive IFR
Visi :
Ceiling :
>= 8 km
>= 3000ft
5 to 8 km
1000 to 3000 ft
1500m to 5 km
500 to 1000 ft
800 to 1500m
200 to 500 ft
< 800m
< 200 ft
Symbols :   Thunderstorms  Fog  Heavy snow  Heavy precipitations  Wind > 20 kt
SIGMETs :     Misc.  Thunderstorms  Icing  Turbulence  Mountain Waves  Volcanic Ashes






- Airport Elevation : 218 ft
- IATA code : LBG


LFPB - Paris / Le Bourget

CURRENT METAR :
  • 191300Z AUTO 22006KT 9999 SCT021 BKN027 BKN035 14/10 Q1005 TEMPO 4000 -SHRA SCT020TCU

EXPIRED METARs :
  • 191230Z AUTO 21006KT 170V250 9999 BKN019 BKN160 14/10 Q1005 TEMPO 4000 -SHRA SCT020TCU
  • 191200Z AUTO 20007KT 9999 BKN017 BKN110 BKN130 13/11 Q1005 TEMPO 4000 -SHRA SCT020TCU
  • 191130Z AUTO 19009KT 9999 BKN017/// BKN034/// BKN058/// ///TCU 13/10 Q1005 TEMPO 4000 -SHRA
  • 191100Z AUTO 20007KT 9999 SCT019/// BKN036/// BKN054/// ///TCU 13/11 Q1005 TEMPO 4000 -SHRA
  • 191030Z AUTO 20005KT 9999 -RA BKN018/// BKN034/// BKN043/// ///TCU 13/11 Q1005 TEMPO 4000 -SHRA

TAF TAF LFPB
Valid from the 19 at 12:00 until the 20 at 12:00 UTC


191100Z 1912/2012 20010KT 9999 SCT020 BKN035
PROB40
TEMPO 1912/1915 4000 -SHRA SCT020TCU
PROB40
TEMPO 1922/2003 3000 BR
PROB30
TEMPO 2000/2003 0800 FG BKN001
BECMG 2002/2004 05005KT
TEMPO 2002/2012 4000 RA BKN008
ATIS : +33 1 48 62 43 92



MET'MAP, your aeronautical weather chart ! - Copyright ORBIFLY December 2007 - Disclaimer

ORBIFLY MET'MAP TEAM :

Programming & Development : Alexandra Zaïnal
Concept & Development : Baudouin d'Aumeries
Co-Development & Prog : Marc-Olivier Méhu
Technical & hardware support : Manuel Goepfert

Contact : metmap@orbifly.com




SOURCES & CREDITS :

   NOAA